sensor_id;sensor_type;location;lat;lon;timestamp;temperature;humidity
8067;DHT22;4076;48.076;9.118;2024-02-26T00:20:17;3.00;99.90
8067;DHT22;4076;48.076;9.118;2024-02-26T00:22:43;3.00;99.90
8067;DHT22;4076;48.076;9.118;2024-02-26T00:25:11;3.00;99.90
8067;DHT22;4076;48.076;9.118;2024-02-26T00:30:07;3.10;99.90
8067;DHT22;4076;48.076;9.118;2024-02-26T00:32:32;3.20;99.90
8067;DHT22;4076;48.076;9.118;2024-02-26T00:37:24;3.10;99.90
8067;DHT22;4076;48.076;9.118;2024-02-26T00:42:16;3.10;99.90
8067;DHT22;4076;48.076;9.118;2024-02-26T00:44:41;3.20;99.90
8067;DHT22;4076;48.076;9.118;2024-02-26T00:47:07;3.30;99.90
8067;DHT22;4076;48.076;9.118;2024-02-26T00:49:32;3.30;99.90
8067;DHT22;4076;48.076;9.118;2024-02-26T00:51:58;3.10;99.90
8067;DHT22;4076;48.076;9.118;2024-02-26T00:54:23;3.30;99.90
8067;DHT22;4076;48.076;9.118;2024-02-26T00:56:49;3.40;99.90
8067;DHT22;4076;48.076;9.118;2024-02-26T00:59:14;3.30;99.90
8067;DHT22;4076;48.076;9.118;2024-02-26T01:01:40;3.30;99.90
8067;DHT22;4076;48.076;9.118;2024-02-26T01:04:05;3.30;99.90
8067;DHT22;4076;48.076;9.118;2024-02-26T01:06:31;3.20;99.90
8067;DHT22;4076;48.076;9.118;2024-02-26T01:08:56;3.20;99.90
8067;DHT22;4076;48.076;9.118;2024-02-26T01:11:22;3.30;99.90
8067;DHT22;4076;48.076;9.118;2024-02-26T01:13:47;3.40;99.90
8067;DHT22;4076;48.076;9.118;2024-02-26T01:16:13;3.30;99.90
8067;DHT22;4076;48.076;9.118;2024-02-26T01:18:38;3.30;99.90
8067;DHT22;4076;48.076;9.118;2024-02-26T01:21:04;3.30;99.90
8067;DHT22;4076;48.076;9.118;2024-02-26T01:23:34;3.30;99.90
8067;DHT22;4076;48.076;9.118;2024-02-26T01:25:59;3.30;99.90
8067;DHT22;4076;48.076;9.118;2024-02-26T01:28:25;3.30;99.90
8067;DHT22;4076;48.076;9.118;2024-02-26T01:30:50;3.30;99.90
8067;DHT22;4076;48.076;9.118;2024-02-26T01:33:16;3.30;99.90
8067;DHT22;4076;48.076;9.118;2024-02-26T01:35:41;3.30;99.90
8067;DHT22;4076;48.076;9.118;2024-02-26T01:38:07;3.30;99.90
8067;DHT22;4076;48.076;9.118;2024-02-26T01:40:33;3.30;99.90
8067;DHT22;4076;48.076;9.118;2024-02-26T01:42:59;3.30;99.90
8067;DHT22;4076;48.076;9.118;2024-02-26T01:45:25;3.30;99.90
8067;DHT22;4076;48.076;9.118;2024-02-26T01:47:51;3.30;99.90
8067;DHT22;4076;48.076;9.118;2024-02-26T01:50:17;3.40;99.90
8067;DHT22;4076;48.076;9.118;2024-02-26T01:52:47;3.40;99.90
8067;DHT22;4076;48.076;9.118;2024-02-26T01:55:13;3.40;99.90
8067;DHT22;4076;48.076;9.118;2024-02-26T01:57:44;3.40;99.90
8067;DHT22;4076;48.076;9.118;2024-02-26T02:00:10;3.50;99.90
8067;DHT22;4076;48.076;9.118;2024-02-26T02:02:37;3.50;99.90
8067;DHT22;4076;48.076;9.118;2024-02-26T02:05:05;3.50;99.90
8067;DHT22;4076;48.076;9.118;2024-02-26T02:07:31;3.60;99.90
8067;DHT22;4076;48.076;9.118;2024-02-26T02:09:57;3.60;99.90
8067;DHT22;4076;48.076;9.118;2024-02-26T02:12:23;3.50;99.90
8067;DHT22;4076;48.076;9.118;2024-02-26T02:14:48;3.60;99.90
8067;DHT22;4076;48.076;9.118;2024-02-26T02:17:14;3.60;99.90
8067;DHT22;4076;48.076;9.118;2024-02-26T02:19:40;3.60;99.90
8067;DHT22;4076;48.076;9.118;2024-02-26T02:22:05;3.60;99.90
8067;DHT22;4076;48.076;9.118;2024-02-26T02:24:31;3.60;99.90
8067;DHT22;4076;48.076;9.118;2024-02-26T02:26:56;3.70;99.90
8067;DHT22;4076;48.076;9.118;2024-02-26T02:29:22;3.70;99.90
8067;DHT22;4076;48.076;9.118;2024-02-26T02:31:48;3.70;99.90
8067;DHT22;4076;48.076;9.118;2024-02-26T02:34:13;3.70;99.90
8067;DHT22;4076;48.076;9.118;2024-02-26T02:36:51;3.70;99.90
8067;DHT22;4076;48.076;9.118;2024-02-26T02:39:17;3.60;99.90
8067;DHT22;4076;48.076;9.118;2024-02-26T02:41:43;3.70;99.90
8067;DHT22;4076;48.076;9.118;2024-02-26T02:44:09;3.60;99.90
8067;DHT22;4076;48.076;9.118;2024-02-26T02:46:34;3.60;99.90
8067;DHT22;4076;48.076;9.118;2024-02-26T02:49:00;3.60;99.90
8067;DHT22;4076;48.076;9.118;2024-02-26T02:51:26;3.80;99.90
8067;DHT22;4076;48.076;9.118;2024-02-26T02:53:51;3.70;99.90
8067;DHT22;4076;48.076;9.118;2024-02-26T02:56:17;3.60;99.90
8067;DHT22;4076;48.076;9.118;2024-02-26T02:58:42;3.70;99.90
8067;DHT22;4076;48.076;9.118;2024-02-26T03:01:08;3.60;99.90
8067;DHT22;4076;48.076;9.118;2024-02-26T03:03:33;3.70;99.90
8067;DHT22;4076;48.076;9.118;2024-02-26T03:05:59;3.60;99.90
8067;DHT22;4076;48.076;9.118;2024-02-26T03:08:25;3.60;99.90
8067;DHT22;4076;48.076;9.118;2024-02-26T03:10:51;3.70;99.90
8067;DHT22;4076;48.076;9.118;2024-02-26T03:13:16;3.70;99.90
8067;DHT22;4076;48.076;9.118;2024-02-26T03:15:42;3.70;99.90
8067;DHT22;4076;48.076;9.118;2024-02-26T03:18:08;3.70;99.90
8067;DHT22;4076;48.076;9.118;2024-02-26T03:20:33;3.70;99.90
8067;DHT22;4076;48.076;9.118;2024-02-26T03:22:58;3.70;99.90
8067;DHT22;4076;48.076;9.118;2024-02-26T03:25:24;3.70;99.90
8067;DHT22;4076;48.076;9.118;2024-02-26T03:27:49;3.80;99.90
8067;DHT22;4076;48.076;9.118;2024-02-26T03:30:15;3.80;99.90
8067;DHT22;4076;48.076;9.118;2024-02-26T03:32:41;3.80;99.90
8067;DHT22;4076;48.076;9.118;2024-02-26T03:35:07;3.70;99.90
8067;DHT22;4076;48.076;9.118;2024-02-26T03:37:33;3.70;99.90
8067;DHT22;4076;48.076;9.118;2024-02-26T03:39:59;3.70;99.90
8067;DHT22;4076;48.076;9.118;2024-02-26T03:42:26;3.70;99.90
8067;DHT22;4076;48.076;9.118;2024-02-26T03:44:52;3.80;99.90
8067;DHT22;4076;48.076;9.118;2024-02-26T03:47:17;3.80;99.90
8067;DHT22;4076;48.076;9.118;2024-02-26T03:49:43;3.80;99.90
8067;DHT22;4076;48.076;9.118;2024-02-26T03:52:09;3.80;99.90
8067;DHT22;4076;48.076;9.118;2024-02-26T03:54:34;3.80;99.90
8067;DHT22;4076;48.076;9.118;2024-02-26T03:57:00;3.70;99.90
8067;DHT22;4076;48.076;9.118;2024-02-26T03:59:26;3.80;99.90
8067;DHT22;4076;48.076;9.118;2024-02-26T04:01:51;3.80;99.90
8067;DHT22;4076;48.076;9.118;2024-02-26T04:04:17;3.80;99.90
8067;DHT22;4076;48.076;9.118;2024-02-26T04:06:46;3.90;99.90
8067;DHT22;4076;48.076;9.118;2024-02-26T04:09:15;3.80;99.90
8067;DHT22;4076;48.076;9.118;2024-02-26T04:11:40;3.80;99.90
8067;DHT22;4076;48.076;9.118;2024-02-26T04:14:08;3.90;99.90
8067;DHT22;4076;48.076;9.118;2024-02-26T04:16:34;3.90;99.90
8067;DHT22;4076;48.076;9.118;2024-02-26T04:19:01;3.90;99.90
8067;DHT22;4076;48.076;9.118;2024-02-26T04:21:26;3.80;99.90
8067;DHT22;4076;48.076;9.118;2024-02-26T04:23:52;3.80;99.90
8067;DHT22;4076;48.076;9.118;2024-02-26T04:26:20;3.80;99.90
8067;DHT22;4076;48.076;9.118;2024-02-26T04:28:46;3.80;99.90
8067;DHT22;4076;48.076;9.118;2024-02-26T04:31:12;3.80;99.90
8067;DHT22;4076;48.076;9.118;2024-02-26T04:33:37;3.90;99.90
8067;DHT22;4076;48.076;9.118;2024-02-26T04:36:03;3.80;99.90
8067;DHT22;4076;48.076;9.118;2024-02-26T04:38:29;3.90;99.90
8067;DHT22;4076;48.076;9.118;2024-02-26T04:40:54;3.90;99.90
8067;DHT22;4076;48.076;9.118;2024-02-26T04:43:20;3.90;99.90
8067;DHT22;4076;48.076;9.118;2024-02-26T04:45:45;3.90;99.90
8067;DHT22;4076;48.076;9.118;2024-02-26T04:48:11;3.90;99.90
8067;DHT22;4076;48.076;9.118;2024-02-26T04:50:36;4.00;99.90
8067;DHT22;4076;48.076;9.118;2024-02-26T04:53:02;4.00;99.90
8067;DHT22;4076;48.076;9.118;2024-02-26T04:55:28;3.90;99.90
8067;DHT22;4076;48.076;9.118;2024-02-26T04:57:53;3.90;99.90
8067;DHT22;4076;48.076;9.118;2024-02-26T05:00:19;3.90;99.90
8067;DHT22;4076;48.076;9.118;2024-02-26T05:02:45;3.90;99.90
8067;DHT22;4076;48.076;9.118;2024-02-26T05:05:11;3.90;99.90
8067;DHT22;4076;48.076;9.118;2024-02-26T05:07:41;3.90;99.90
8067;DHT22;4076;48.076;9.118;2024-02-26T05:10:10;3.90;99.90
8067;DHT22;4076;48.076;9.118;2024-02-26T05:12:36;4.00;99.90
8067;DHT22;4076;48.076;9.118;2024-02-26T05:15:02;3.90;99.90
8067;DHT22;4076;48.076;9.118;2024-02-26T05:17:28;3.90;99.90
8067;DHT22;4076;48.076;9.118;2024-02-26T05:19:54;3.90;99.90
8067;DHT22;4076;48.076;9.118;2024-02-26T05:22:19;3.80;99.90
8067;DHT22;4076;48.076;9.118;2024-02-26T05:24:45;3.80;99.90
8067;DHT22;4076;48.076;9.118;2024-02-26T05:27:11;3.70;99.90
8067;DHT22;4076;48.076;9.118;2024-02-26T05:29:37;3.70;99.90
8067;DHT22;4076;48.076;9.118;2024-02-26T05:32:03;3.60;99.90
8067;DHT22;4076;48.076;9.118;2024-02-26T05:34:29;3.60;99.90
8067;DHT22;4076;48.076;9.118;2024-02-26T05:36:55;3.50;99.90
8067;DHT22;4076;48.076;9.118;2024-02-26T05:39:21;3.40;99.90
8067;DHT22;4076;48.076;9.118;2024-02-26T05:41:46;3.40;99.90
8067;DHT22;4076;48.076;9.118;2024-02-26T05:44:12;3.40;99.90
8067;DHT22;4076;48.076;9.118;2024-02-26T05:46:38;3.40;99.90
8067;DHT22;4076;48.076;9.118;2024-02-26T05:49:03;3.40;99.90
8067;DHT22;4076;48.076;9.118;2024-02-26T05:51:29;3.30;99.90
8067;DHT22;4076;48.076;9.118;2024-02-26T05:53:54;3.30;99.90
8067;DHT22;4076;48.076;9.118;2024-02-26T05:56:21;3.30;99.90
8067;DHT22;4076;48.076;9.118;2024-02-26T05:58:47;3.30;99.90
8067;DHT22;4076;48.076;9.118;2024-02-26T06:01:13;3.30;99.90
8067;DHT22;4076;48.076;9.118;2024-02-26T06:03:40;3.30;99.90
8067;DHT22;4076;48.076;9.118;2024-02-26T06:06:05;3.30;99.90
8067;DHT22;4076;48.076;9.118;2024-02-26T06:08:31;3.30;99.90
8067;DHT22;4076;48.076;9.118;2024-02-26T06:10:56;3.30;99.90
8067;DHT22;4076;48.076;9.118;2024-02-26T06:13:22;3.30;99.90
8067;DHT22;4076;48.076;9.118;2024-02-26T06:15:48;3.40;99.90
8067;DHT22;4076;48.076;9.118;2024-02-26T06:18:13;3.40;99.90
8067;DHT22;4076;48.076;9.118;2024-02-26T06:20:39;3.50;99.90
8067;DHT22;4076;48.076;9.118;2024-02-26T06:23:04;3.60;99.90
8067;DHT22;4076;48.076;9.118;2024-02-26T06:25:30;3.60;99.90
8067;DHT22;4076;48.076;9.118;2024-02-26T06:27:55;3.60;99.90
8067;DHT22;4076;48.076;9.118;2024-02-26T06:30:21;3.70;99.90
8067;DHT22;4076;48.076;9.118;2024-02-26T06:32:46;3.70;99.90
8067;DHT22;4076;48.076;9.118;2024-02-26T06:35:12;3.70;99.90
8067;DHT22;4076;48.076;9.118;2024-02-26T06:37:37;3.80;99.90
8067;DHT22;4076;48.076;9.118;2024-02-26T06:40:03;3.80;99.90
8067;DHT22;4076;48.076;9.118;2024-02-26T06:42:31;3.90;99.90
8067;DHT22;4076;48.076;9.118;2024-02-26T06:44:57;3.80;99.90
8067;DHT22;4076;48.076;9.118;2024-02-26T06:47:23;3.90;99.90
8067;DHT22;4076;48.076;9.118;2024-02-26T06:49:48;4.00;99.90
8067;DHT22;4076;48.076;9.118;2024-02-26T06:52:14;4.10;99.90
8067;DHT22;4076;48.076;9.118;2024-02-26T06:54:40;4.20;99.90
8067;DHT22;4076;48.076;9.118;2024-02-26T06:57:05;4.10;99.90
8067;DHT22;4076;48.076;9.118;2024-02-26T06:59:31;4.20;99.90
8067;DHT22;4076;48.076;9.118;2024-02-26T07:01:56;4.20;99.90
8067;DHT22;4076;48.076;9.118;2024-02-26T07:04:22;4.30;99.90
8067;DHT22;4076;48.076;9.118;2024-02-26T07:06:47;4.30;99.90
8067;DHT22;4076;48.076;9.118;2024-02-26T07:11:43;4.50;99.90
8067;DHT22;4076;48.076;9.118;2024-02-26T07:14:09;4.50;99.90
8067;DHT22;4076;48.076;9.118;2024-02-26T07:16:35;4.50;99.90
8067;DHT22;4076;48.076;9.118;2024-02-26T07:19:01;4.80;99.90
8067;DHT22;4076;48.076;9.118;2024-02-26T07:21:26;4.50;99.90
8067;DHT22;4076;48.076;9.118;2024-02-26T07:23:52;4.60;99.90
8067;DHT22;4076;48.076;9.118;2024-02-26T07:26:17;4.80;99.90
8067;DHT22;4076;48.076;9.118;2024-02-26T07:28:44;4.90;99.90
8067;DHT22;4076;48.076;9.118;2024-02-26T07:31:10;5.10;99.90
8067;DHT22;4076;48.076;9.118;2024-02-26T07:33:35;5.20;99.90
8067;DHT22;4076;48.076;9.118;2024-02-26T07:36:01;5.30;99.90
8067;DHT22;4076;48.076;9.118;2024-02-26T07:38:26;5.30;99.90
8067;DHT22;4076;48.076;9.118;2024-02-26T07:40:52;5.40;99.90
8067;DHT22;4076;48.076;9.118;2024-02-26T07:43:17;5.30;99.90
8067;DHT22;4076;48.076;9.118;2024-02-26T08:15:32;5.80;99.90
8067;DHT22;4076;48.076;9.118;2024-02-26T08:18:00;5.60;99.90
8067;DHT22;4076;48.076;9.118;2024-02-26T08:20:28;5.70;99.90
8067;DHT22;4076;48.076;9.118;2024-02-26T08:22:53;5.70;99.90
8067;DHT22;4076;48.076;9.118;2024-02-26T08:25:19;5.80;99.90
8067;DHT22;4076;48.076;9.118;2024-02-26T08:27:44;5.90;99.90
8067;DHT22;4076;48.076;9.118;2024-02-26T08:30:10;6.10;99.90
8067;DHT22;4076;48.076;9.118;2024-02-26T08:32:38;6.00;99.90
8067;DHT22;4076;48.076;9.118;2024-02-26T08:35:04;6.10;99.90
8067;DHT22;4076;48.076;9.118;2024-02-26T08:37:30;6.30;99.90
8067;DHT22;4076;48.076;9.118;2024-02-26T08:39:55;6.40;99.90
8067;DHT22;4076;48.076;9.118;2024-02-26T08:42:21;6.70;99.90
8067;DHT22;4076;48.076;9.118;2024-02-26T08:44:49;7.00;99.90
8067;DHT22;4076;48.076;9.118;2024-02-26T08:47:15;7.20;99.90
8067;DHT22;4076;48.076;9.118;2024-02-26T08:49:45;7.40;99.90
8067;DHT22;4076;48.076;9.118;2024-02-26T08:52:11;7.60;99.90
8067;DHT22;4076;48.076;9.118;2024-02-26T08:54:36;7.60;99.90
8067;DHT22;4076;48.076;9.118;2024-02-26T08:59:38;7.80;99.90
8067;DHT22;4076;48.076;9.118;2024-02-26T09:09:23;11.00;99.90
8067;DHT22;4076;48.076;9.118;2024-02-26T09:11:51;11.40;99.90
8067;DHT22;4076;48.076;9.118;2024-02-26T09:16:44;11.10;99.90
8067;DHT22;4076;48.076;9.118;2024-02-26T09:19:10;12.50;96.20
8067;DHT22;4076;48.076;9.118;2024-02-26T09:21:35;13.00;99.90
8067;DHT22;4076;48.076;9.118;2024-02-26T09:28:56;16.20;98.50
8067;DHT22;4076;48.076;9.118;2024-02-26T09:31:21;19.30;81.90
8067;DHT22;4076;48.076;9.118;2024-02-26T09:36:12;24.50;74.20
8067;DHT22;4076;48.076;9.118;2024-02-26T10:05:41;29.70;40.20
8067;DHT22;4076;48.076;9.118;2024-02-26T10:13:03;25.30;58.90
8067;DHT22;4076;48.076;9.118;2024-02-26T10:23:04;21.30;68.70
8067;DHT22;4076;48.076;9.118;2024-02-26T10:28:01;19.90;51.80
8067;DHT22;4076;48.076;9.118;2024-02-26T10:30:29;19.30;45.70
8067;DHT22;4076;48.076;9.118;2024-02-26T10:32:56;18.00;46.10
8067;DHT22;4076;48.076;9.118;2024-02-26T10:35:23;17.30;46.40
8067;DHT22;4076;48.076;9.118;2024-02-26T10:37:50;16.70;46.90
8067;DHT22;4076;48.076;9.118;2024-02-26T10:40:16;16.20;47.60
8067;DHT22;4076;48.076;9.118;2024-02-26T10:42:42;15.80;48.80
8067;DHT22;4076;48.076;9.118;2024-02-26T10:45:09;15.30;49.20
8067;DHT22;4076;48.076;9.118;2024-02-26T10:47:38;14.90;50.40
8067;DHT22;4076;48.076;9.118;2024-02-26T10:50:06;14.50;51.80
8067;DHT22;4076;48.076;9.118;2024-02-26T10:52:34;14.30;49.80
8067;DHT22;4076;48.076;9.118;2024-02-26T10:55:04;14.20;49.70
8067;DHT22;4076;48.076;9.118;2024-02-26T10:57:35;14.00;50.20
8067;DHT22;4076;48.076;9.118;2024-02-26T11:00:03;13.90;50.60
8067;DHT22;4076;48.076;9.118;2024-02-26T11:02:33;13.70;52.30
8067;DHT22;4076;48.076;9.118;2024-02-26T11:05:03;13.50;51.00
8067;DHT22;4076;48.076;9.118;2024-02-26T11:07:30;13.30;50.70
8067;DHT22;4076;48.076;9.118;2024-02-26T11:09:56;13.20;51.00
8067;DHT22;4076;48.076;9.118;2024-02-26T11:12:22;13.10;51.40
8067;DHT22;4076;48.076;9.118;2024-02-26T11:14:49;13.00;51.90
8067;DHT22;4076;48.076;9.118;2024-02-26T11:17:21;12.90;51.40
8067;DHT22;4076;48.076;9.118;2024-02-26T11:19:48;12.80;52.00
8067;DHT22;4076;48.076;9.118;2024-02-26T11:22:15;12.80;54.00
8067;DHT22;4076;48.076;9.118;2024-02-26T11:24:40;12.70;53.50
8067;DHT22;4076;48.076;9.118;2024-02-26T11:27:10;12.70;52.70
8067;DHT22;4076;48.076;9.118;2024-02-26T11:29:43;12.60;52.20
8067;DHT22;4076;48.076;9.118;2024-02-26T11:32:10;12.50;51.80
8067;DHT22;4076;48.076;9.118;2024-02-26T11:34:36;12.30;51.50
8067;DHT22;4076;48.076;9.118;2024-02-26T11:37:10;12.20;51.70
8067;DHT22;4076;48.076;9.118;2024-02-26T11:39:35;12.10;52.00
8067;DHT22;4076;48.076;9.118;2024-02-26T11:42:06;12.00;52.10
8067;DHT22;4076;48.076;9.118;2024-02-26T11:44:32;11.90;52.40
8067;DHT22;4076;48.076;9.118;2024-02-26T11:46:57;12.00;52.30
8067;DHT22;4076;48.076;9.118;2024-02-26T11:51:57;12.00;52.20
8067;DHT22;4076;48.076;9.118;2024-02-26T11:54:49;12.00;52.40
8067;DHT22;4076;48.076;9.118;2024-02-26T11:57:37;11.90;52.60
8067;DHT22;4076;48.076;9.118;2024-02-26T12:02:44;11.90;52.50
8067;DHT22;4076;48.076;9.118;2024-02-26T12:05:16;11.80;52.80
8067;DHT22;4076;48.076;9.118;2024-02-26T12:07:44;11.80;53.00
8067;DHT22;4076;48.076;9.118;2024-02-26T12:10:27;11.90;53.10
8067;DHT22;4076;48.076;9.118;2024-02-26T12:13:00;12.00;53.10
8067;DHT22;4076;48.076;9.118;2024-02-26T12:15:36;12.00;53.50
8067;DHT22;4076;48.076;9.118;2024-02-26T12:18:04;12.20;53.10
8067;DHT22;4076;48.076;9.118;2024-02-26T12:20:30;12.30;53.60
8067;DHT22;4076;48.076;9.118;2024-02-26T12:22:56;12.40;53.10
8067;DHT22;4076;48.076;9.118;2024-02-26T12:25:26;12.40;53.10
8067;DHT22;4076;48.076;9.118;2024-02-26T12:27:53;12.50;53.30
8067;DHT22;4076;48.076;9.118;2024-02-26T12:30:19;12.50;52.70
8067;DHT22;4076;48.076;9.118;2024-02-26T12:32:45;12.50;52.90
8067;DHT22;4076;48.076;9.118;2024-02-26T12:35:11;12.50;53.10
8067;DHT22;4076;48.076;9.118;2024-02-26T12:37:38;12.60;53.10
8067;DHT22;4076;48.076;9.118;2024-02-26T12:40:08;12.60;52.80
8067;DHT22;4076;48.076;9.118;2024-02-26T12:42:35;12.60;53.20
8067;DHT22;4076;48.076;9.118;2024-02-26T12:45:08;12.60;52.80
8067;DHT22;4076;48.076;9.118;2024-02-26T12:47:41;12.60;52.80
8067;DHT22;4076;48.076;9.118;2024-02-26T12:50:07;12.70;53.00
8067;DHT22;4076;48.076;9.118;2024-02-26T12:52:35;12.80;53.00
8067;DHT22;4076;48.076;9.118;2024-02-26T12:55:04;12.80;53.30
8067;DHT22;4076;48.076;9.118;2024-02-26T12:57:31;12.90;54.80
8067;DHT22;4076;48.076;9.118;2024-02-26T12:59:59;12.90;53.70
8067;DHT22;4076;48.076;9.118;2024-02-26T13:02:25;13.00;53.90
8067;DHT22;4076;48.076;9.118;2024-02-26T13:04:51;13.10;54.00
8067;DHT22;4076;48.076;9.118;2024-02-26T13:07:17;13.20;54.10
8067;DHT22;4076;48.076;9.118;2024-02-26T13:09:43;13.40;54.90
8067;DHT22;4076;48.076;9.118;2024-02-26T13:12:09;13.70;53.40
8067;DHT22;4076;48.076;9.118;2024-02-26T13:14:34;13.80;53.90
8067;DHT22;4076;48.076;9.118;2024-02-26T13:17:01;14.10;52.80
8067;DHT22;4076;48.076;9.118;2024-02-26T13:19:27;14.20;52.40
8067;DHT22;4076;48.076;9.118;2024-02-26T13:21:55;14.20;52.00
8067;DHT22;4076;48.076;9.118;2024-02-26T13:24:21;14.20;52.40
8067;DHT22;4076;48.076;9.118;2024-02-26T13:26:54;14.30;52.20
8067;DHT22;4076;48.076;9.118;2024-02-26T13:29:19;14.10;51.50
8067;DHT22;4076;48.076;9.118;2024-02-26T13:31:45;14.10;51.90
8067;DHT22;4076;48.076;9.118;2024-02-26T13:34:32;14.20;53.20
8067;DHT22;4076;48.076;9.118;2024-02-26T13:36:59;14.10;51.20
8067;DHT22;4076;48.076;9.118;2024-02-26T13:39:26;14.00;51.10
8067;DHT22;4076;48.076;9.118;2024-02-26T13:41:52;14.00;51.30
8067;DHT22;4076;48.076;9.118;2024-02-26T13:44:19;14.00;50.80
8067;DHT22;4076;48.076;9.118;2024-02-26T13:46:46;13.90;51.40
8067;DHT22;4076;48.076;9.118;2024-02-26T13:49:11;13.80;50.70
8067;DHT22;4076;48.076;9.118;2024-02-26T13:51:38;13.80;50.80
8067;DHT22;4076;48.076;9.118;2024-02-26T13:54:03;13.60;51.60
8067;DHT22;4076;48.076;9.118;2024-02-26T13:56:30;13.50;51.30
8067;DHT22;4076;48.076;9.118;2024-02-26T13:58:56;13.40;52.00
8067;DHT22;4076;48.076;9.118;2024-02-26T14:01:21;13.40;51.70
8067;DHT22;4076;48.076;9.118;2024-02-26T14:03:47;13.40;52.30
8067;DHT22;4076;48.076;9.118;2024-02-26T14:06:12;13.20;52.40
8067;DHT22;4076;48.076;9.118;2024-02-26T14:08:38;13.10;52.90
8067;DHT22;4076;48.076;9.118;2024-02-26T14:11:03;13.20;52.90
8067;DHT22;4076;48.076;9.118;2024-02-26T14:13:29;13.10;53.00
8067;DHT22;4076;48.076;9.118;2024-02-26T14:15:55;13.00;53.30
8067;DHT22;4076;48.076;9.118;2024-02-26T14:18:20;13.00;53.50
8067;DHT22;4076;48.076;9.118;2024-02-26T14:20:46;12.90;53.70
8067;DHT22;4076;48.076;9.118;2024-02-26T14:23:12;13.00;53.30
8067;DHT22;4076;48.076;9.118;2024-02-26T14:25:38;12.80;53.90
8067;DHT22;4076;48.076;9.118;2024-02-26T14:28:03;12.70;54.00
8067;DHT22;4076;48.076;9.118;2024-02-26T14:30:29;12.60;54.40
8067;DHT22;4076;48.076;9.118;2024-02-26T14:32:55;12.60;54.30
8067;DHT22;4076;48.076;9.118;2024-02-26T14:35:20;12.60;54.70
8067;DHT22;4076;48.076;9.118;2024-02-26T14:37:46;12.50;55.00
8067;DHT22;4076;48.076;9.118;2024-02-26T14:40:13;12.40;55.30
8067;DHT22;4076;48.076;9.118;2024-02-26T14:42:40;12.40;55.70
8067;DHT22;4076;48.076;9.118;2024-02-26T14:45:06;12.30;55.80
8067;DHT22;4076;48.076;9.118;2024-02-26T14:47:34;12.20;56.10
8067;DHT22;4076;48.076;9.118;2024-02-26T14:50:00;12.10;56.30
8067;DHT22;4076;48.076;9.118;2024-02-26T14:52:25;12.10;57.10
8067;DHT22;4076;48.076;9.118;2024-02-26T14:54:51;12.20;56.90
8067;DHT22;4076;48.076;9.118;2024-02-26T14:57:17;12.10;57.00
8067;DHT22;4076;48.076;9.118;2024-02-26T14:59:42;12.10;57.20
8067;DHT22;4076;48.076;9.118;2024-02-26T15:02:09;12.00;57.60
8067;DHT22;4076;48.076;9.118;2024-02-26T15:04:35;12.00;58.00
8067;DHT22;4076;48.076;9.118;2024-02-26T15:07:01;11.90;58.50
8067;DHT22;4076;48.076;9.118;2024-02-26T15:09:27;11.80;58.40
8067;DHT22;4076;48.076;9.118;2024-02-26T15:11:52;11.80;58.90
8067;DHT22;4076;48.076;9.118;2024-02-26T15:14:17;11.60;59.30
8067;DHT22;4076;48.076;9.118;2024-02-26T15:16:43;11.50;59.70
8067;DHT22;4076;48.076;9.118;2024-02-26T15:19:09;11.50;59.80
8067;DHT22;4076;48.076;9.118;2024-02-26T15:21:34;11.40;60.50
8067;DHT22;4076;48.076;9.118;2024-02-26T15:24:07;11.40;60.80
8067;DHT22;4076;48.076;9.118;2024-02-26T15:26:32;11.40;61.70
8067;DHT22;4076;48.076;9.118;2024-02-26T15:28:58;11.30;63.00
8067;DHT22;4076;48.076;9.118;2024-02-26T15:31:23;11.20;63.50
8067;DHT22;4076;48.076;9.118;2024-02-26T15:33:49;11.20;63.80
8067;DHT22;4076;48.076;9.118;2024-02-26T15:36:14;11.30;63.40
8067;DHT22;4076;48.076;9.118;2024-02-26T15:38:40;11.20;64.70
8067;DHT22;4076;48.076;9.118;2024-02-26T15:41:15;11.20;64.70
8067;DHT22;4076;48.076;9.118;2024-02-26T15:43:40;11.00;65.20
8067;DHT22;4076;48.076;9.118;2024-02-26T15:46:06;10.80;65.20
8067;DHT22;4076;48.076;9.118;2024-02-26T15:48:32;10.60;65.50
8067;DHT22;4076;48.076;9.118;2024-02-26T15:50:58;10.70;66.60
8067;DHT22;4076;48.076;9.118;2024-02-26T15:53:23;10.70;67.50
8067;DHT22;4076;48.076;9.118;2024-02-26T15:55:49;10.50;68.50
8067;DHT22;4076;48.076;9.118;2024-02-26T15:58:14;10.50;69.40
8067;DHT22;4076;48.076;9.118;2024-02-26T16:00:41;10.40;69.00
8067;DHT22;4076;48.076;9.118;2024-02-26T16:03:07;10.40;69.20
8067;DHT22;4076;48.076;9.118;2024-02-26T16:05:33;10.30;70.50
8067;DHT22;4076;48.076;9.118;2024-02-26T16:08:04;10.30;71.10
8067;DHT22;4076;48.076;9.118;2024-02-26T16:10:30;10.30;71.60
8067;DHT22;4076;48.076;9.118;2024-02-26T16:12:59;10.30;71.80
8067;DHT22;4076;48.076;9.118;2024-02-26T16:15:26;10.20;72.40
8067;DHT22;4076;48.076;9.118;2024-02-26T16:17:52;10.20;73.00
8067;DHT22;4076;48.076;9.118;2024-02-26T16:20:21;10.20;74.40
8067;DHT22;4076;48.076;9.118;2024-02-26T16:22:50;10.10;75.00
8067;DHT22;4076;48.076;9.118;2024-02-26T16:25:16;10.10;75.20
8067;DHT22;4076;48.076;9.118;2024-02-26T16:27:42;10.00;76.00
8067;DHT22;4076;48.076;9.118;2024-02-26T16:30:09;10.00;76.60
8067;DHT22;4076;48.076;9.118;2024-02-26T16:32:35;10.00;77.30
8067;DHT22;4076;48.076;9.118;2024-02-26T16:35:03;9.90;79.20
8067;DHT22;4076;48.076;9.118;2024-02-26T16:37:30;9.90;81.60
8067;DHT22;4076;48.076;9.118;2024-02-26T16:40:03;9.90;78.70
8067;DHT22;4076;48.076;9.118;2024-02-26T16:42:36;9.90;81.10
8067;DHT22;4076;48.076;9.118;2024-02-26T16:45:02;9.80;81.70
8067;DHT22;4076;48.076;9.118;2024-02-26T16:47:32;9.90;81.40
8067;DHT22;4076;48.076;9.118;2024-02-26T16:49:58;9.80;81.50
8067;DHT22;4076;48.076;9.118;2024-02-26T16:52:24;9.80;80.80
8067;DHT22;4076;48.076;9.118;2024-02-26T16:54:51;9.70;81.80
8067;DHT22;4076;48.076;9.118;2024-02-26T16:57:16;9.70;82.40
8067;DHT22;4076;48.076;9.118;2024-02-26T16:59:42;9.70;81.80
8067;DHT22;4076;48.076;9.118;2024-02-26T17:02:07;9.80;81.90
8067;DHT22;4076;48.076;9.118;2024-02-26T17:04:34;9.70;82.50
8067;DHT22;4076;48.076;9.118;2024-02-26T17:07:00;9.60;82.50
8067;DHT22;4076;48.076;9.118;2024-02-26T17:09:26;9.50;83.40
8067;DHT22;4076;48.076;9.118;2024-02-26T17:11:51;9.50;83.40
8067;DHT22;4076;48.076;9.118;2024-02-26T17:14:20;9.40;83.40
8067;DHT22;4076;48.076;9.118;2024-02-26T17:16:47;9.40;84.40
8067;DHT22;4076;48.076;9.118;2024-02-26T17:19:13;9.40;83.00
8067;DHT22;4076;48.076;9.118;2024-02-26T17:21:38;9.30;82.90
8067;DHT22;4076;48.076;9.118;2024-02-26T17:24:04;9.30;83.30
8067;DHT22;4076;48.076;9.118;2024-02-26T17:26:30;9.30;83.50
8067;DHT22;4076;48.076;9.118;2024-02-26T17:28:55;9.30;84.90
8067;DHT22;4076;48.076;9.118;2024-02-26T17:31:21;9.20;86.30
8067;DHT22;4076;48.076;9.118;2024-02-26T17:33:48;9.20;86.40
8067;DHT22;4076;48.076;9.118;2024-02-26T17:36:17;9.20;86.60
8067;DHT22;4076;48.076;9.118;2024-02-26T17:38:43;9.20;86.80
8067;DHT22;4076;48.076;9.118;2024-02-26T17:41:10;9.10;87.80
8067;DHT22;4076;48.076;9.118;2024-02-26T17:43:37;9.10;88.40
8067;DHT22;4076;48.076;9.118;2024-02-26T17:46:03;9.10;89.10
8067;DHT22;4076;48.076;9.118;2024-02-26T17:48:29;9.10;90.20
8067;DHT22;4076;48.076;9.118;2024-02-26T17:50:55;9.10;90.70
8067;DHT22;4076;48.076;9.118;2024-02-26T17:53:23;9.10;92.00
8067;DHT22;4076;48.076;9.118;2024-02-26T17:55:50;9.00;92.50
8067;DHT22;4076;48.076;9.118;2024-02-26T17:58:16;9.00;91.40
8067;DHT22;4076;48.076;9.118;2024-02-26T18:00:43;9.00;91.10
8067;DHT22;4076;48.076;9.118;2024-02-26T18:03:09;9.00;92.20
8067;DHT22;4076;48.076;9.118;2024-02-26T18:05:35;8.90;92.30
8067;DHT22;4076;48.076;9.118;2024-02-26T18:08:00;8.80;92.80
8067;DHT22;4076;48.076;9.118;2024-02-26T18:10:26;8.80;93.10
8067;DHT22;4076;48.076;9.118;2024-02-26T18:12:51;8.80;93.20